Terminal Aerodrome Forecast
Issued by NWS Wilmington, OH

Current Version | Previous Version | Text Only | Print | Product List | Glossary Off
Versions: 1 2 3 4 5 6 7 8 9 10 11 12 13 14 15 16 17 18

000
FTUS41 KILN 252300
TAFDAY
TAF
KDAY 252330Z 2600/2624 06008KT 1SM -SN BR OVC002
      TEMPO 2600/2603 1/2SM SN
     FM260300 04015G23KT 3/4SM -SN OVC006
     FM260500 02015G23KT 3SM -SN OVC010
     FM260900 36015G23KT P6SM OVC012
     FM261100 36013KT P6SM OVC015
     FM261800 33010KT P6SM SCT015 BKN250=

USA.gov is the U.S. government's official web portal to all federal, state and local government web resources and services.